ADDS TAF Data INFO
IDs: Format: Raw Decoded Include METARs

Data at: 0523 UTC 17 Aug 2018

TAF for:KAUS (Austin/Bergstrom Int, TX, US) issued at 0306 UTC 17 Aug 2018
Text:KAUS 170306Z 1703/1806 17013KT P6SM FEW250
Forecast period:0300 to 0600 UTC 17 August 2018
Forecast type:FROM: standard forecast or significant change
Winds:from the S (170 degrees) at 15 MPH (13 knots; 6.7 m/s)
Visibility:6 or more sm (10+ km)
Ceiling:at least 12,000 feet AGL
Clouds: few clouds at 25000 feet AGL
Text:FM170600 18006KT P6SM SCT015 SCT250
Forecast period:0600 to 1400 UTC 17 August 2018
Forecast type:FROM: standard forecast or significant change
Winds:from the S (180 degrees) at 7 MPH (6 knots; 3.1 m/s)
Visibility:6 or more sm (10+ km)
Ceiling:at least 12,000 feet AGL
Clouds: scattered clouds at 1500 feet AGL, scattered clouds at 25000 feet AGL
Text:FM171400 19010KT P6SM FEW060
Forecast period:1400 UTC 17 August 2018 to 0600 UTC 18 August 2018
Forecast type:FROM: standard forecast or significant change
Winds:from the S (190 degrees) at 12 MPH (10 knots; 5.1 m/s)
Visibility:6 or more sm (10+ km)
Ceiling:at least 12,000 feet AGL
Clouds: few clouds at 6000 feet AGL